sensor_id;sensor_type;location;lat;lon;timestamp;pressure;altitude;pressure_sealevel;temperature;humidity
34696;BME280;20918;51.138;17.370;2023-02-05T00:02:01;102142.81;;;-2.84;82.14
34696;BME280;20918;51.138;17.370;2023-02-05T00:05:02;102144.90;;;-2.84;82.32
34696;BME280;20918;51.138;17.370;2023-02-05T00:08:02;102144.34;;;-2.83;82.24
34696;BME280;20918;51.138;17.370;2023-02-05T00:11:03;102142.77;;;-2.82;82.32
34696;BME280;20918;51.138;17.370;2023-02-05T00:14:08;102139.83;;;-2.82;82.15
34696;BME280;20918;51.138;17.370;2023-02-05T00:17:10;102141.39;;;-2.83;82.06
34696;BME280;20918;51.138;17.370;2023-02-05T00:20:10;102145.02;;;-2.81;82.25
34696;BME280;20918;51.138;17.370;2023-02-05T00:23:11;102146.89;;;-2.80;82.35
34696;BME280;20918;51.138;17.370;2023-02-05T00:26:12;102146.17;;;-2.79;82.17
34696;BME280;20918;51.138;17.370;2023-02-05T00:29:16;102149.45;;;-2.78;82.40
34696;BME280;20918;51.138;17.370;2023-02-05T00:32:16;102145.48;;;-2.79;82.16
34696;BME280;20918;51.138;17.370;2023-02-05T00:35:17;102151.36;;;-2.78;82.20
34696;BME280;20918;51.138;17.370;2023-02-05T00:38:18;102153.79;;;-2.79;82.13
34696;BME280;20918;51.138;17.370;2023-02-05T00:41:18;102153.80;;;-2.80;82.23
34696;BME280;20918;51.138;17.370;2023-02-05T00:44:19;102149.98;;;-2.79;82.11
34696;BME280;20918;51.138;17.370;2023-02-05T00:47:19;102148.08;;;-2.79;82.24
34696;BME280;20918;51.138;17.370;2023-02-05T00:50:20;102146.36;;;-2.80;82.29
34696;BME280;20918;51.138;17.370;2023-02-05T00:53:22;102144.30;;;-2.81;82.15
34696;BME280;20918;51.138;17.370;2023-02-05T00:56:23;102151.77;;;-2.81;82.17
34696;BME280;20918;51.138;17.370;2023-02-05T00:59:23;102153.34;;;-2.82;82.21
34696;BME280;20918;51.138;17.370;2023-02-05T01:02:24;102158.73;;;-2.83;82.50
34696;BME280;20918;51.138;17.370;2023-02-05T01:05:28;102161.15;;;-2.83;82.81
34696;BME280;20918;51.138;17.370;2023-02-05T01:08:30;102161.83;;;-2.83;82.68
34696;BME280;20918;51.138;17.370;2023-02-05T01:11:30;102167.56;;;-2.83;82.57
34696;BME280;20918;51.138;17.370;2023-02-05T01:14:31;102169.84;;;-2.84;82.61
34696;BME280;20918;51.138;17.370;2023-02-05T01:17:31;102164.83;;;-2.86;82.70
34696;BME280;20918;51.138;17.370;2023-02-05T01:20:38;102161.89;;;-2.86;82.40
34696;BME280;20918;51.138;17.370;2023-02-05T01:23:38;102161.55;;;-2.86;82.37
34696;BME280;20918;51.138;17.370;2023-02-05T01:26:39;102164.30;;;-2.84;82.47
34696;BME280;20918;51.138;17.370;2023-02-05T01:29:41;102161.70;;;-2.84;82.19
34696;BME280;20918;51.138;17.370;2023-02-05T01:32:42;102160.66;;;-2.84;82.43
34696;BME280;20918;51.138;17.370;2023-02-05T01:35:42;102165.84;;;-2.83;82.38
34696;BME280;20918;51.138;17.370;2023-02-05T01:38:44;102165.67;;;-2.84;82.54
34696;BME280;20918;51.138;17.370;2023-02-05T01:41:45;102162.02;;;-2.83;82.46
34696;BME280;20918;51.138;17.370;2023-02-05T01:48:24;102164.59;;;-2.82;82.43
34696;BME280;20918;51.138;17.370;2023-02-05T01:51:28;102169.44;;;-2.81;82.70
34696;BME280;20918;51.138;17.370;2023-02-05T01:54:31;102173.06;;;-2.82;82.53
34696;BME280;20918;51.138;17.370;2023-02-05T01:57:37;102172.73;;;-2.83;82.55
34696;BME280;20918;51.138;17.370;2023-02-05T02:00:38;102165.13;;;-2.83;82.51
34696;BME280;20918;51.138;17.370;2023-02-05T02:03:40;102164.45;;;-2.83;81.92
34696;BME280;20918;51.138;17.370;2023-02-05T02:06:40;102167.22;;;-2.83;80.35
34696;BME280;20918;51.138;17.370;2023-02-05T02:09:42;102170.13;;;-2.81;80.33
34696;BME280;20918;51.138;17.370;2023-02-05T02:12:45;102166.77;;;-2.78;81.24
34696;BME280;20918;51.138;17.370;2023-02-05T02:15:48;102168.63;;;-2.77;81.27
34696;BME280;20918;51.138;17.370;2023-02-05T02:18:50;102167.74;;;-2.75;81.27
34696;BME280;20918;51.138;17.370;2023-02-05T02:28:44;102177.11;;;-2.76;79.26
34696;BME280;20918;51.138;17.370;2023-02-05T02:32:00;102178.52;;;-2.77;78.28
34696;BME280;20918;51.138;17.370;2023-02-05T02:38:49;102177.89;;;-2.80;76.82
34696;BME280;20918;51.138;17.370;2023-02-05T02:41:56;102174.86;;;-2.84;76.43
34696;BME280;20918;51.138;17.370;2023-02-05T02:45:04;102170.42;;;-2.87;76.20
34696;BME280;20918;51.138;17.370;2023-02-05T02:48:07;102171.19;;;-2.92;77.05
34696;BME280;20918;51.138;17.370;2023-02-05T02:51:09;102173.42;;;-2.90;76.71
34696;BME280;20918;51.138;17.370;2023-02-05T02:54:16;102179.81;;;-2.89;76.81
34696;BME280;20918;51.138;17.370;2023-02-05T02:57:21;102183.40;;;-2.88;77.37
34696;BME280;20918;51.138;17.370;2023-02-05T03:00:24;102176.82;;;-2.87;76.65
34696;BME280;20918;51.138;17.370;2023-02-05T03:03:27;102178.73;;;-2.88;76.92
34696;BME280;20918;51.138;17.370;2023-02-05T03:06:30;102176.67;;;-2.88;76.75
34696;BME280;20918;51.138;17.370;2023-02-05T03:09:59;102170.30;;;-2.90;76.18
34696;BME280;20918;51.138;17.370;2023-02-05T03:13:01;102165.52;;;-2.94;76.56
34696;BME280;20918;51.138;17.370;2023-02-05T03:16:03;102167.46;;;-2.96;76.75
34696;BME280;20918;51.138;17.370;2023-02-05T03:19:04;102170.98;;;-2.98;76.39
34696;BME280;20918;51.138;17.370;2023-02-05T03:22:05;102171.16;;;-2.99;76.66
34696;BME280;20918;51.138;17.370;2023-02-05T03:25:06;102175.34;;;-3.00;76.70
34696;BME280;20918;51.138;17.370;2023-02-05T03:28:08;102177.64;;;-3.02;76.42
34696;BME280;20918;51.138;17.370;2023-02-05T03:31:19;102180.79;;;-3.03;76.68
34696;BME280;20918;51.138;17.370;2023-02-05T03:44:11;102178.61;;;-3.09;77.42
34696;BME280;20918;51.138;17.370;2023-02-05T03:47:48;102180.98;;;-3.14;77.32
34696;BME280;20918;51.138;17.370;2023-02-05T03:51:04;102182.64;;;-3.20;77.64
34696;BME280;20918;51.138;17.370;2023-02-05T03:57:25;102191.83;;;-3.30;77.46
34696;BME280;20918;51.138;17.370;2023-02-05T04:00:29;102195.71;;;-3.34;77.29
34696;BME280;20918;51.138;17.370;2023-02-05T04:03:30;102195.63;;;-3.40;77.18
34696;BME280;20918;51.138;17.370;2023-02-05T04:06:32;102194.70;;;-3.46;77.25
34696;BME280;20918;51.138;17.370;2023-02-05T04:09:32;102194.27;;;-3.50;77.24
34696;BME280;20918;51.138;17.370;2023-02-05T04:12:33;102190.70;;;-3.55;77.15
34696;BME280;20918;51.138;17.370;2023-02-05T04:15:34;102193.20;;;-3.59;77.24
34696;BME280;20918;51.138;17.370;2023-02-05T04:18:35;102196.23;;;-3.66;77.22
34696;BME280;20918;51.138;17.370;2023-02-05T04:21:39;102198.92;;;-3.71;77.34
34696;BME280;20918;51.138;17.370;2023-02-05T04:24:39;102195.05;;;-3.77;77.27
34696;BME280;20918;51.138;17.370;2023-02-05T04:27:40;102195.50;;;-3.84;77.50
34696;BME280;20918;51.138;17.370;2023-02-05T04:30:40;102199.36;;;-3.88;77.41
34696;BME280;20918;51.138;17.370;2023-02-05T04:33:42;102203.59;;;-3.93;77.40
34696;BME280;20918;51.138;17.370;2023-02-05T04:36:44;102203.46;;;-3.96;77.48
34696;BME280;20918;51.138;17.370;2023-02-05T04:39:46;102211.26;;;-3.96;77.68
34696;BME280;20918;51.138;17.370;2023-02-05T04:42:46;102212.83;;;-3.97;77.71
34696;BME280;20918;51.138;17.370;2023-02-05T04:45:47;102216.48;;;-4.00;77.93
34696;BME280;20918;51.138;17.370;2023-02-05T04:48:47;102215.17;;;-4.04;77.66
34696;BME280;20918;51.138;17.370;2023-02-05T04:51:48;102216.91;;;-4.07;78.02
34696;BME280;20918;51.138;17.370;2023-02-05T04:54:49;102220.79;;;-4.11;77.83
34696;BME280;20918;51.138;17.370;2023-02-05T04:57:49;102220.48;;;-4.14;78.11
34696;BME280;20918;51.138;17.370;2023-02-05T05:00:50;102225.01;;;-4.16;78.01
34696;BME280;20918;51.138;17.370;2023-02-05T05:03:50;102226.75;;;-4.17;78.14
34696;BME280;20918;51.138;17.370;2023-02-05T05:06:51;102229.78;;;-4.23;78.29
34696;BME280;20918;51.138;17.370;2023-02-05T05:09:51;102231.76;;;-4.29;78.20
34696;BME280;20918;51.138;17.370;2023-02-05T05:12:52;102229.61;;;-4.36;78.34
34696;BME280;20918;51.138;17.370;2023-02-05T05:15:54;102238.78;;;-4.38;78.35
34696;BME280;20918;51.138;17.370;2023-02-05T05:18:55;102241.27;;;-4.43;78.26
34696;BME280;20918;51.138;17.370;2023-02-05T05:21:55;102248.91;;;-4.46;78.27
34696;BME280;20918;51.138;17.370;2023-02-05T05:24:56;102255.01;;;-4.50;78.23
34696;BME280;20918;51.138;17.370;2023-02-05T05:27:56;102258.69;;;-4.56;78.19
34696;BME280;20918;51.138;17.370;2023-02-05T05:30:57;102259.61;;;-4.60;78.18
34696;BME280;20918;51.138;17.370;2023-02-05T05:33:57;102263.83;;;-4.66;78.34
34696;BME280;20918;51.138;17.370;2023-02-05T05:36:58;102268.88;;;-4.70;78.17
34696;BME280;20918;51.138;17.370;2023-02-05T05:39:58;102269.27;;;-4.74;78.53
34696;BME280;20918;51.138;17.370;2023-02-05T05:43:19;102276.71;;;-4.76;78.44
34696;BME280;20918;51.138;17.370;2023-02-05T05:46:39;102283.31;;;-4.80;78.39
34696;BME280;20918;51.138;17.370;2023-02-05T05:49:39;102280.25;;;-4.84;78.58
34696;BME280;20918;51.138;17.370;2023-02-05T05:52:39;102281.52;;;-4.90;78.30
34696;BME280;20918;51.138;17.370;2023-02-05T05:55:40;102291.73;;;-4.93;78.55
34696;BME280;20918;51.138;17.370;2023-02-05T05:58:41;102290.90;;;-4.97;78.58
34696;BME280;20918;51.138;17.370;2023-02-05T06:01:42;102293.52;;;-5.00;78.68
34696;BME280;20918;51.138;17.370;2023-02-05T06:04:42;102295.09;;;-5.03;78.55
34696;BME280;20918;51.138;17.370;2023-02-05T06:07:43;102290.80;;;-5.05;78.68
34696;BME280;20918;51.138;17.370;2023-02-05T06:10:44;102289.13;;;-5.10;78.73
34696;BME280;20918;51.138;17.370;2023-02-05T06:13:45;102290.54;;;-5.14;78.69
34696;BME280;20918;51.138;17.370;2023-02-05T06:16:45;102290.22;;;-5.17;78.71
34696;BME280;20918;51.138;17.370;2023-02-05T06:19:48;102294.20;;;-5.19;78.90
34696;BME280;20918;51.138;17.370;2023-02-05T06:22:49;102304.23;;;-5.20;78.78
34696;BME280;20918;51.138;17.370;2023-02-05T06:25:49;102307.69;;;-5.21;79.02
34696;BME280;20918;51.138;17.370;2023-02-05T06:28:50;102305.45;;;-5.22;78.87
34696;BME280;20918;51.138;17.370;2023-02-05T06:31:50;102302.02;;;-5.24;79.01
34696;BME280;20918;51.138;17.370;2023-02-05T06:34:51;102305.99;;;-5.24;79.27
34696;BME280;20918;51.138;17.370;2023-02-05T06:37:52;102312.33;;;-5.19;79.31
34696;BME280;20918;51.138;17.370;2023-02-05T06:40:52;102314.17;;;-5.12;79.27
34696;BME280;20918;51.138;17.370;2023-02-05T06:43:53;102321.70;;;-5.06;79.42
34696;BME280;20918;51.138;17.370;2023-02-05T06:46:53;102320.92;;;-4.95;79.44
34696;BME280;20918;51.138;17.370;2023-02-05T06:49:54;102325.30;;;-4.84;79.75
34696;BME280;20918;51.138;17.370;2023-02-05T06:52:54;102319.77;;;-4.64;79.82
34696;BME280;20918;51.138;17.370;2023-02-05T06:55:58;102321.75;;;-4.40;80.06
34696;BME280;20918;51.138;17.370;2023-02-05T06:58:58;102326.81;;;-4.16;80.21
34696;BME280;20918;51.138;17.370;2023-02-05T07:01:59;102333.21;;;-3.88;80.39
34696;BME280;20918;51.138;17.370;2023-02-05T07:04:59;102329.64;;;-3.67;79.94
34696;BME280;20918;51.138;17.370;2023-02-05T07:08:00;102335.73;;;-3.45;79.92
34696;BME280;20918;51.138;17.370;2023-02-05T07:11:03;102343.54;;;-3.24;79.80
34696;BME280;20918;51.138;17.370;2023-02-05T07:14:04;102351.06;;;-3.07;79.48
34696;BME280;20918;51.138;17.370;2023-02-05T07:17:05;102353.91;;;-2.82;79.45
34696;BME280;20918;51.138;17.370;2023-02-05T07:20:07;102359.40;;;-2.58;79.14
34696;BME280;20918;51.138;17.370;2023-02-05T07:23:08;102372.99;;;-2.44;78.74
34696;BME280;20918;51.138;17.370;2023-02-05T07:26:10;102376.72;;;-2.30;78.71
34696;BME280;20918;51.138;17.370;2023-02-05T07:29:11;102382.52;;;-2.16;78.49
34696;BME280;20918;51.138;17.370;2023-02-05T07:32:12;102386.63;;;-2.03;78.48
34696;BME280;20918;51.138;17.370;2023-02-05T07:35:13;102388.39;;;-1.96;78.12
34696;BME280;20918;51.138;17.370;2023-02-05T07:38:13;102384.59;;;-1.89;77.94
34696;BME280;20918;51.138;17.370;2023-02-05T07:41:15;102386.91;;;-1.92;77.44
34696;BME280;20918;51.138;17.370;2023-02-05T07:44:15;102383.52;;;-1.96;77.40
34696;BME280;20918;51.138;17.370;2023-02-05T07:47:16;102387.74;;;-1.98;77.12
34696;BME280;20918;51.138;17.370;2023-02-05T07:50:17;102388.83;;;-2.01;77.46
34696;BME280;20918;51.138;17.370;2023-02-05T07:53:17;102387.59;;;-2.00;76.95
34696;BME280;20918;51.138;17.370;2023-02-05T07:56:18;102390.36;;;-2.00;77.19
34696;BME280;20918;51.138;17.370;2023-02-05T07:59:22;102391.11;;;-1.95;76.76
34696;BME280;20918;51.138;17.370;2023-02-05T08:02:23;102394.54;;;-1.92;76.86
34696;BME280;20918;51.138;17.370;2023-02-05T08:05:24;102398.02;;;-1.84;76.82
34696;BME280;20918;51.138;17.370;2023-02-05T08:08:24;102396.35;;;-1.78;76.43
34696;BME280;20918;51.138;17.370;2023-02-05T08:11:25;102402.67;;;-1.74;76.33
34696;BME280;20918;51.138;17.370;2023-02-05T08:14:26;102392.67;;;-1.61;76.12
34696;BME280;20918;51.138;17.370;2023-02-05T08:17:26;102394.16;;;-1.34;76.29
34696;BME280;20918;51.138;17.370;2023-02-05T08:20:27;102392.80;;;-0.98;75.74
34696;BME280;20918;51.138;17.370;2023-02-05T08:23:27;102396.15;;;-0.65;75.69
34696;BME280;20918;51.138;17.370;2023-02-05T08:26:28;102393.34;;;-0.23;75.67
34696;BME280;20918;51.138;17.370;2023-02-05T08:29:29;102392.23;;;0.22;76.12
34696;BME280;20918;51.138;17.370;2023-02-05T08:32:29;102393.85;;;0.66;75.33
34696;BME280;20918;51.138;17.370;2023-02-05T08:35:30;102391.42;;;1.05;74.11
34696;BME280;20918;51.138;17.370;2023-02-05T08:38:31;102392.04;;;1.13;73.81
34696;BME280;20918;51.138;17.370;2023-02-05T08:41:31;102392.43;;;1.22;73.40
34696;BME280;20918;51.138;17.370;2023-02-05T08:44:32;102397.67;;;1.48;73.22
34696;BME280;20918;51.138;17.370;2023-02-05T08:47:36;102400.95;;;1.64;72.94
34696;BME280;20918;51.138;17.370;2023-02-05T08:50:37;102400.29;;;1.82;72.07
34696;BME280;20918;51.138;17.370;2023-02-05T08:53:38;102403.38;;;1.69;71.51
34696;BME280;20918;51.138;17.370;2023-02-05T08:56:41;102403.35;;;1.44;71.26
34696;BME280;20918;51.138;17.370;2023-02-05T08:59:41;102404.45;;;1.33;71.59
34696;BME280;20918;51.138;17.370;2023-02-05T09:02:45;102401.63;;;1.44;70.71
34696;BME280;20918;51.138;17.370;2023-02-05T09:05:46;102403.29;;;1.36;68.47
34696;BME280;20918;51.138;17.370;2023-02-05T09:08:48;102404.44;;;1.48;70.33
34696;BME280;20918;51.138;17.370;2023-02-05T09:11:49;102403.17;;;1.70;67.50
34696;BME280;20918;51.138;17.370;2023-02-05T09:14:51;102407.54;;;1.85;68.50
34696;BME280;20918;51.138;17.370;2023-02-05T09:17:52;102400.41;;;2.03;69.46
34696;BME280;20918;51.138;17.370;2023-02-05T09:20:53;102396.77;;;1.73;68.57
34696;BME280;20918;51.138;17.370;2023-02-05T09:24:03;102391.65;;;1.34;67.50
34696;BME280;20918;51.138;17.370;2023-02-05T09:27:04;102391.45;;;0.76;68.34
34696;BME280;20918;51.138;17.370;2023-02-05T09:30:05;102387.92;;;0.55;68.62
34696;BME280;20918;51.138;17.370;2023-02-05T09:33:06;102390.66;;;0.39;68.98
34696;BME280;20918;51.138;17.370;2023-02-05T09:36:17;102388.31;;;0.42;69.21
34696;BME280;20918;51.138;17.370;2023-02-05T09:39:18;102384.27;;;0.55;69.64
34696;BME280;20918;51.138;17.370;2023-02-05T09:42:31;102376.86;;;0.53;69.48
34696;BME280;20918;51.138;17.370;2023-02-05T09:52:19;102378.64;;;0.46;67.96
34696;BME280;20918;51.138;17.370;2023-02-05T09:55:25;102380.21;;;0.34;67.48
34696;BME280;20918;51.138;17.370;2023-02-05T09:58:29;102373.50;;;0.25;68.01
34696;BME280;20918;51.138;17.370;2023-02-05T10:01:50;102372.48;;;0.30;68.40
34696;BME280;20918;51.138;17.370;2023-02-05T10:04:51;102372.39;;;0.40;68.18
34696;BME280;20918;51.138;17.370;2023-02-05T10:08:23;102368.09;;;0.31;67.22
34696;BME280;20918;51.138;17.370;2023-02-05T10:11:43;102366.32;;;0.03;66.82
34696;BME280;20918;51.138;17.370;2023-02-05T10:27:04;102340.11;;;-0.82;66.72
34696;BME280;20918;51.138;17.370;2023-02-05T10:33:49;102335.17;;;-0.93;66.17
34696;BME280;20918;51.138;17.370;2023-02-05T10:36:56;102337.84;;;-1.02;66.77
34696;BME280;20918;51.138;17.370;2023-02-05T10:40:10;102333.05;;;-0.99;66.91
34696;BME280;20918;51.138;17.370;2023-02-05T10:43:25;102334.46;;;-0.99;65.83
34696;BME280;20918;51.138;17.370;2023-02-05T10:46:32;102328.39;;;-0.93;65.84
34696;BME280;20918;51.138;17.370;2023-02-05T10:49:54;102320.66;;;-0.96;65.15
34696;BME280;20918;51.138;17.370;2023-02-05T10:52:57;102324.52;;;-0.84;66.20
34696;BME280;20918;51.138;17.370;2023-02-05T10:55:59;102324.43;;;-0.67;65.94
34696;BME280;20918;51.138;17.370;2023-02-05T10:59:01;102322.36;;;-0.61;65.63
34696;BME280;20918;51.138;17.370;2023-02-05T11:02:09;102322.77;;;-0.52;66.26
34696;BME280;20918;51.138;17.370;2023-02-05T11:05:24;102320.54;;;-0.33;66.37
34696;BME280;20918;51.138;17.370;2023-02-05T11:08:41;102314.91;;;-0.25;66.18
34696;BME280;20918;51.138;17.370;2023-02-05T11:11:53;102306.29;;;-0.34;64.57
34696;BME280;20918;51.138;17.370;2023-02-05T11:14:57;102306.59;;;-0.44;65.16
34696;BME280;20918;51.138;17.370;2023-02-05T11:18:01;102306.92;;;-0.63;63.07
34696;BME280;20918;51.138;17.370;2023-02-05T11:21:03;102315.75;;;-0.88;63.10
34696;BME280;20918;51.138;17.370;2023-02-05T11:24:05;102318.46;;;-1.06;62.86
34696;BME280;20918;51.138;17.370;2023-02-05T11:30:31;102327.21;;;-1.08;64.01
34696;BME280;20918;51.138;17.370;2023-02-05T11:33:34;102331.34;;;-1.06;64.32
34696;BME280;20918;51.138;17.370;2023-02-05T11:36:36;102336.57;;;-1.07;63.91
34696;BME280;20918;51.138;17.370;2023-02-05T11:39:39;102330.32;;;-1.07;64.25
34696;BME280;20918;51.138;17.370;2023-02-05T11:42:40;102328.55;;;-1.06;64.60
34696;BME280;20918;51.138;17.370;2023-02-05T11:45:49;102328.80;;;-1.09;63.73
34696;BME280;20918;51.138;17.370;2023-02-05T11:49:01;102329.36;;;-1.11;64.71
34696;BME280;20918;51.138;17.370;2023-02-05T11:52:09;102329.75;;;-1.05;64.71
34696;BME280;20918;51.138;17.370;2023-02-05T11:55:32;102328.38;;;-1.06;63.40
34696;BME280;20918;51.138;17.370;2023-02-05T11:58:33;102330.43;;;-1.12;64.20
34696;BME280;20918;51.138;17.370;2023-02-05T12:01:35;102329.64;;;-1.08;64.65
34696;BME280;20918;51.138;17.370;2023-02-05T12:04:43;102329.66;;;-1.02;65.04
34696;BME280;20918;51.138;17.370;2023-02-05T12:11:40;102336.85;;;-0.90;64.61
34696;BME280;20918;51.138;17.370;2023-02-05T12:15:12;102327.02;;;-0.94;64.53
34696;BME280;20918;51.138;17.370;2023-02-05T12:18:37;102329.90;;;-0.91;64.96
34696;BME280;20918;51.138;17.370;2023-02-05T12:31:23;102320.69;;;-1.18;64.03
34696;BME280;20918;51.138;17.370;2023-02-05T12:37:59;102311.62;;;-1.17;64.29
34696;BME280;20918;51.138;17.370;2023-02-05T12:41:21;102308.85;;;-1.18;63.81
34696;BME280;20918;51.138;17.370;2023-02-05T12:44:39;102308.02;;;-1.19;64.32
34696;BME280;20918;51.138;17.370;2023-02-05T12:51:36;102305.32;;;-1.07;64.46
34696;BME280;20918;51.138;17.370;2023-02-05T12:58:00;102302.27;;;-0.97;64.67
34696;BME280;20918;51.138;17.370;2023-02-05T13:01:09;102306.32;;;-0.86;64.97
34696;BME280;20918;51.138;17.370;2023-02-05T13:04:23;102297.10;;;-0.79;64.64
34696;BME280;20918;51.138;17.370;2023-02-05T13:07:35;102297.67;;;-0.75;64.69
34696;BME280;20918;51.138;17.370;2023-02-05T13:10:49;102304.70;;;-0.77;64.56
34696;BME280;20918;51.138;17.370;2023-02-05T13:17:21;102300.59;;;-0.80;64.82
34696;BME280;20918;51.138;17.370;2023-02-05T13:20:29;102300.30;;;-0.81;64.47
34696;BME280;20918;51.138;17.370;2023-02-05T13:24:24;102306.95;;;-0.97;64.43
34696;BME280;20918;51.138;17.370;2023-02-05T13:27:48;102310.81;;;-1.06;64.49
34696;BME280;20918;51.138;17.370;2023-02-05T13:34:22;102307.02;;;-1.06;64.80
34696;BME280;20918;51.138;17.370;2023-02-05T13:48:27;102295.11;;;-1.09;64.67
34696;BME280;20918;51.138;17.370;2023-02-05T13:52:09;102291.79;;;-1.09;64.76
34696;BME280;20918;51.138;17.370;2023-02-05T13:58:28;102294.48;;;-1.12;64.85
34696;BME280;20918;51.138;17.370;2023-02-05T14:01:42;102290.77;;;-1.16;64.72
34696;BME280;20918;51.138;17.370;2023-02-05T14:04:46;102293.54;;;-1.23;64.74
34696;BME280;20918;51.138;17.370;2023-02-05T14:07:53;102295.77;;;-1.29;64.85
34696;BME280;20918;51.138;17.370;2023-02-05T14:11:00;102296.11;;;-1.28;65.16
34696;BME280;20918;51.138;17.370;2023-02-05T14:26:50;102298.90;;;-1.08;65.31
34696;BME280;20918;51.138;17.370;2023-02-05T14:29:52;102293.86;;;-1.08;65.26
34696;BME280;20918;51.138;17.370;2023-02-05T14:39:35;102292.27;;;-1.14;65.35
34696;BME280;20918;51.138;17.370;2023-02-05T14:42:36;102297.15;;;-1.08;65.41
34696;BME280;20918;51.138;17.370;2023-02-05T14:45:45;102299.84;;;-1.04;65.44
34696;BME280;20918;51.138;17.370;2023-02-05T14:48:47;102299.33;;;-1.05;65.40
34696;BME280;20918;51.138;17.370;2023-02-05T14:51:52;102296.89;;;-1.05;65.37
34696;BME280;20918;51.138;17.370;2023-02-05T14:55:16;102296.70;;;-1.03;65.53
34696;BME280;20918;51.138;17.370;2023-02-05T14:58:30;102295.59;;;-1.01;65.74
34696;BME280;20918;51.138;17.370;2023-02-05T15:04:42;102293.13;;;-1.00;65.75
34696;BME280;20918;51.138;17.370;2023-02-05T15:07:46;102301.95;;;-0.99;65.53
34696;BME280;20918;51.138;17.370;2023-02-05T15:20:36;102312.52;;;-0.97;65.82
34696;BME280;20918;51.138;17.370;2023-02-05T15:23:42;102312.21;;;-0.99;65.68
34696;BME280;20918;51.138;17.370;2023-02-05T15:27:14;102309.68;;;-1.02;65.61
34696;BME280;20918;51.138;17.370;2023-02-05T15:30:24;102305.33;;;-1.08;65.91
34696;BME280;20918;51.138;17.370;2023-02-05T15:33:33;102303.25;;;-1.15;65.84
34696;BME280;20918;51.138;17.370;2023-02-05T15:36:51;102304.63;;;-1.22;65.83
34696;BME280;20918;51.138;17.370;2023-02-05T15:39:59;102304.34;;;-1.32;66.25
34696;BME280;20918;51.138;17.370;2023-02-05T15:43:24;102318.27;;;-1.33;66.40
34696;BME280;20918;51.138;17.370;2023-02-05T15:46:30;102318.61;;;-1.40;66.83
34696;BME280;20918;51.138;17.370;2023-02-05T15:49:45;102319.65;;;-1.48;67.07
34696;BME280;20918;51.138;17.370;2023-02-05T15:52:47;102310.02;;;-1.51;68.37
34696;BME280;20918;51.138;17.370;2023-02-05T15:55:49;102307.48;;;-1.47;67.81
34696;BME280;20918;51.138;17.370;2023-02-05T15:58:53;102308.28;;;-1.52;67.69
34696;BME280;20918;51.138;17.370;2023-02-05T16:02:19;102315.35;;;-1.57;67.30
34696;BME280;20918;51.138;17.370;2023-02-05T16:05:21;102316.31;;;-1.62;67.48
34696;BME280;20918;51.138;17.370;2023-02-05T16:08:22;102321.63;;;-1.66;67.70
34696;BME280;20918;51.138;17.370;2023-02-05T16:14:27;102327.19;;;-1.74;68.09
34696;BME280;20918;51.138;17.370;2023-02-05T16:17:39;102329.59;;;-1.81;68.26
34696;BME280;20918;51.138;17.370;2023-02-05T16:20:48;102327.47;;;-1.87;68.41
34696;BME280;20918;51.138;17.370;2023-02-05T16:23:57;102332.41;;;-1.92;68.00
34696;BME280;20918;51.138;17.370;2023-02-05T16:27:00;102333.46;;;-1.99;68.24
34696;BME280;20918;51.138;17.370;2023-02-05T16:30:11;102334.63;;;-2.05;68.60
34696;BME280;20918;51.138;17.370;2023-02-05T16:36:25;102338.94;;;-2.21;69.02
34696;BME280;20918;51.138;17.370;2023-02-05T16:39:35;102339.05;;;-2.27;69.22
34696;BME280;20918;51.138;17.370;2023-02-05T16:42:40;102344.10;;;-2.28;69.37
34696;BME280;20918;51.138;17.370;2023-02-05T16:49:29;102352.14;;;-2.40;69.46
34696;BME280;20918;51.138;17.370;2023-02-05T16:52:34;102349.30;;;-2.47;69.65
34696;BME280;20918;51.138;17.370;2023-02-05T16:55:39;102356.16;;;-2.52;69.78
34696;BME280;20918;51.138;17.370;2023-02-05T16:59:00;102359.38;;;-2.57;69.89
34696;BME280;20918;51.138;17.370;2023-02-05T17:02:03;102357.96;;;-2.64;70.27
34696;BME280;20918;51.138;17.370;2023-02-05T17:05:31;102363.55;;;-2.87;70.17
34696;BME280;20918;51.138;17.370;2023-02-05T17:08:36;102362.83;;;-3.07;70.36
34696;BME280;20918;51.138;17.370;2023-02-05T17:11:41;102360.94;;;-3.08;70.79
34696;BME280;20918;51.138;17.370;2023-02-05T17:14:54;102360.74;;;-3.17;70.90
34696;BME280;20918;51.138;17.370;2023-02-05T17:17:58;102364.83;;;-3.24;71.25
34696;BME280;20918;51.138;17.370;2023-02-05T17:24:27;102363.54;;;-3.30;71.69
34696;BME280;20918;51.138;17.370;2023-02-05T17:27:30;102361.13;;;-3.31;71.92
34696;BME280;20918;51.138;17.370;2023-02-05T17:30:33;102356.96;;;-3.31;71.97
34696;BME280;20918;51.138;17.370;2023-02-05T17:33:34;102355.96;;;-3.33;72.35
34696;BME280;20918;51.138;17.370;2023-02-05T17:36:34;102355.52;;;-3.38;72.15
34696;BME280;20918;51.138;17.370;2023-02-05T17:39:35;102353.17;;;-3.43;72.37
34696;BME280;20918;51.138;17.370;2023-02-05T17:42:36;102352.21;;;-3.48;72.37
34696;BME280;20918;51.138;17.370;2023-02-05T17:45:39;102357.35;;;-3.56;72.33
34696;BME280;20918;51.138;17.370;2023-02-05T17:48:40;102357.05;;;-3.60;72.74
34696;BME280;20918;51.138;17.370;2023-02-05T17:51:42;102366.08;;;-3.63;72.92
34696;BME280;20918;51.138;17.370;2023-02-05T17:54:43;102371.97;;;-3.64;72.90
34696;BME280;20918;51.138;17.370;2023-02-05T17:57:47;102369.91;;;-3.65;72.81
34696;BME280;20918;51.138;17.370;2023-02-05T18:00:48;102370.85;;;-3.71;72.88
34696;BME280;20918;51.138;17.370;2023-02-05T18:03:49;102372.99;;;-3.75;73.06
34696;BME280;20918;51.138;17.370;2023-02-05T18:06:50;102377.55;;;-3.79;73.11
34696;BME280;20918;51.138;17.370;2023-02-05T18:09:50;102375.73;;;-3.86;73.04
34696;BME280;20918;51.138;17.370;2023-02-05T18:12:52;102376.10;;;-3.88;73.30
34696;BME280;20918;51.138;17.370;2023-02-05T18:15:56;102370.27;;;-3.93;73.41
34696;BME280;20918;51.138;17.370;2023-02-05T18:19:01;102368.98;;;-4.00;73.80